Time;durP1;ratioP1;P1;durP2;ratioP2;P2;SDS_P1;SDS_P2;PMS_P1;PMS_P2;Temp;Humidity;BMP_temperature;BMP_pressure;BME280_temperature;BME280_humidity;BME280_pressure;Samples;Min_cycle;Max_cycle;Signal;HPM_P1;HPM_P2
2021/12/05 00:24:22;;;;;;;5.67;3.30;;;;;;;4.22;65.41;97898.13;5004398;28;20712;-69
2021/12/05 00:26:23;;;;;;;3.33;2.40;;;;;;;4.97;63.78;97888.56;4989543;28;20234;-68
2021/12/05 00:42:02;;;;;;;6.30;2.93;;;;;;;4.34;65.09;97897.50;5067452;28;20230;-68
2021/12/05 01:16:53;;;;;;;4.63;2.93;;;;;;;4.44;64.78;97913.09;5037769;28;20702;-69
2021/12/05 01:19:22;;;;;;;4.73;3.20;;;;;;;4.65;64.89;97909.81;5046905;28;20234;-69
2021/12/05 01:21:55;;;;;;;8.40;3.73;;;;;;;5.20;63.46;97896.41;5046177;28;20212;-69
2021/12/05 01:27:04;;;;;;;9.77;3.63;;;;;;;5.00;63.64;97898.75;5037980;28;20232;-69
2021/12/05 02:30:55;;;;;;;8.20;2.97;;;;;;;2.09;72.05;97850.38;5066830;28;20226;-69
2021/12/05 02:41:20;;;;;;;5.90;2.70;;;;;;;3.13;70.28;97837.38;5063356;28;20219;-69
2021/12/05 02:43:57;;;;;;;4.23;2.60;;;;;;;2.27;72.85;97845.78;5054810;28;20231;-68
2021/12/05 02:46:25;;;;;;;9.83;2.80;;;;;;;3.21;70.26;97832.06;5045854;28;20219;-69
2021/12/05 02:49:03;;;;;;;3.63;2.33;;;;;;;2.98;72.78;97842.53;5059157;28;20781;-69
2021/12/05 02:51:32;;;;;;;6.87;2.70;;;;;;;2.30;75.42;97849.91;5065997;28;20219;-69
2021/12/05 02:54:16;;;;;;;3.13;2.57;;;;;;;2.68;74.18;97829.13;5066860;28;20219;-68
2021/12/05 02:56:48;;;;;;;6.50;2.70;;;;;;;1.98;75.18;97845.47;5065979;28;20237;-69
2021/12/05 02:59:22;;;;;;;4.70;2.57;;;;;;;2.89;71.72;97822.50;5066885;28;20316;-69
2021/12/05 03:02:00;;;;;;;5.93;2.90;;;;;;;3.13;72.53;97825.00;5058446;28;20219;-68
2021/12/05 03:04:31;;;;;;;4.03;2.70;;;;;;;3.02;71.35;97817.50;5063790;28;20219;-69
2021/12/05 03:07:04;;;;;;;3.97;2.67;;;;;;;2.23;74.71;97833.13;5066179;28;20227;-69
2021/12/05 03:09:31;;;;;;;3.73;2.30;;;;;;;2.02;75.25;97834.47;5065413;28;20211;-69
2021/12/05 03:11:59;;;;;;;6.40;3.63;;;;;;;2.89;72.67;97827.75;5066817;28;20229;-69
2021/12/05 03:14:26;;;;;;;6.77;2.60;;;;;;;4.86;66.69;97782.28;5066000;28;20215;-69
2021/12/05 03:16:53;;;;;;;4.30;2.80;;;;;;;3.45;70.71;97823.25;5066123;28;20218;-69
2021/12/05 03:19:21;;;;;;;3.73;3.00;;;;;;;4.20;67.81;97800.63;5066186;28;20223;-69
2021/12/05 03:21:50;;;;;;;2.27;2.07;;;;;;;1.48;75.53;97853.28;5058980;28;20223;-69
2021/12/05 03:24:18;;;;;;;6.07;2.60;;;;;;;3.44;70.82;97813.72;5065732;28;20219;-68
2021/12/05 03:26:47;;;;;;;6.13;2.93;;;;;;;2.29;70.84;97814.03;5064930;28;20225;-69
2021/12/05 03:29:16;;;;;;;8.63;2.57;;;;;;;2.68;72.83;97822.06;5066891;28;20745;-69
2021/12/05 03:31:44;;;;;;;3.20;2.40;;;;;;;4.00;69.80;97802.94;5064260;28;20772;-69
2021/12/05 03:34:15;;;;;;;4.50;3.17;;;;;;;2.67;71.64;97811.69;5066333;28;20604;-68
2021/12/05 03:36:47;;;;;;;8.27;3.13;;;;;;;2.63;75.47;97813.00;5063814;28;20231;-68
2021/12/05 03:39:15;;;;;;;5.33;2.97;;;;;;;2.69;73.76;97807.88;5066105;28;20241;-69
2021/12/05 03:41:44;;;;;;;3.73;2.40;;;;;;;2.06;74.40;97811.28;5066643;28;20223;-69
2021/12/05 03:44:13;;;;;;;3.70;3.00;;;;;;;2.58;71.38;97786.34;5066458;28;20225;-69
2021/12/05 03:46:41;;;;;;;4.97;2.63;;;;;;;3.23;71.63;97777.38;5069277;28;20228;-69
2021/12/05 03:49:11;;;;;;;3.23;2.20;;;;;;;2.63;72.98;97787.50;5069122;28;20673;-69
2021/12/05 03:51:44;;;;;;;4.93;3.00;;;;;;;3.38;70.58;97772.22;5068538;28;20265;-69
2021/12/05 03:54:11;;;;;;;4.20;2.80;;;;;;;3.70;69.06;97765.09;5070288;28;20223;-68
2021/12/05 03:56:39;;;;;;;4.97;2.60;;;;;;;3.84;69.29;97774.88;5068264;28;20219;-69
2021/12/05 03:59:08;;;;;;;4.20;2.63;;;;;;;1.17;76.26;97811.75;5068752;28;20219;-69
2021/12/05 04:01:35;;;;;;;5.33;2.50;;;;;;;1.16;76.64;97811.91;5067704;28;20239;-69
2021/12/05 04:04:04;;;;;;;5.30;2.20;;;;;;;1.91;76.11;97808.47;5070053;28;20230;-68
2021/12/05 04:06:31;;;;;;;4.10;2.77;;;;;;;1.52;77.04;97812.53;5069094;28;20223;-69
2021/12/05 04:09:02;;;;;;;3.57;2.50;;;;;;;1.29;78.45;97812.28;5069552;28;20280;-69
2021/12/05 04:11:35;;;;;;;4.93;2.90;;;;;;;2.26;74.35;97788.91;5069337;28;20222;-68
2021/12/05 04:14:10;;;;;;;5.87;2.60;;;;;;;1.46;77.95;97807.91;5069046;28;20216;-69
2021/12/05 04:16:38;;;;;;;4.70;2.63;;;;;;;1.78;76.95;97798.44;5067315;28;20236;-69
2021/12/05 04:19:06;;;;;;;3.43;2.30;;;;;;;1.98;74.50;97793.69;5067893;28;20234;-69
2021/12/05 04:21:36;;;;;;;5.40;2.47;;;;;;;2.18;73.20;97786.28;5069755;28;20234;-68
2021/12/05 04:24:06;;;;;;;4.13;2.50;;;;;;;1.07;78.95;97805.81;5069562;28;20610;-68
2021/12/05 04:26:34;;;;;;;4.87;2.60;;;;;;;1.10;77.92;97802.88;5067937;28;20241;-68
2021/12/05 04:29:03;;;;;;;3.10;2.10;;;;;;;2.25;76.04;97779.34;5069234;28;20223;-69
2021/12/05 04:31:30;;;;;;;4.47;2.20;;;;;;;1.23;76.89;97801.59;5067549;28;20229;-69
2021/12/05 04:33:57;;;;;;;4.47;2.70;;;;;;;1.04;78.17;97798.25;5069215;28;20219;-69
2021/12/05 04:36:24;;;;;;;4.70;2.73;;;;;;;1.87;77.00;97791.38;5068101;28;20234;-68
2021/12/05 04:38:51;;;;;;;3.37;2.50;;;;;;;1.28;76.31;97786.16;5068954;28;20714;-69
2021/12/05 04:41:19;;;;;;;3.73;2.43;;;;;;;1.10;78.01;97794.19;5068676;28;20222;-68
2021/12/05 04:43:47;;;;;;;6.93;2.50;;;;;;;1.20;76.52;97789.63;5067328;28;20241;-69
2021/12/05 04:46:17;;;;;;;4.53;2.70;;;;;;;1.16;76.19;97793.53;5065325;28;20244;-68
2021/12/05 04:48:47;;;;;;;3.87;3.10;;;;;;;1.11;77.01;97804.53;5067286;28;20672;-69
2021/12/05 04:51:14;;;;;;;3.73;2.33;;;;;;;0.98;78.43;97801.53;5067733;28;20254;-69
2021/12/05 04:53:41;;;;;;;4.30;2.40;;;;;;;1.48;77.83;97802.50;5069025;28;20636;-68
2021/12/05 04:56:08;;;;;;;4.70;2.40;;;;;;;1.33;76.71;97799.66;5067776;28;20590;-68
2021/12/05 04:58:35;;;;;;;5.03;2.50;;;;;;;1.65;75.71;97777.91;5068601;28;20219;-68
2021/12/05 05:01:04;;;;;;;3.57;2.37;;;;;;;1.52;76.49;97790.72;5066917;28;20726;-69
2021/12/05 05:03:33;;;;;;;6.20;2.83;;;;;;;2.60;74.29;97772.06;5066320;28;20230;-69
2021/12/05 05:06:10;;;;;;;4.57;2.37;;;;;;;2.22;74.45;97782.31;5068262;28;20233;-69
2021/12/05 05:08:37;;;;;;;6.23;2.40;;;;;;;2.35;72.26;97767.84;5066330;28;20227;-68
2021/12/05 05:11:08;;;;;;;3.03;2.47;;;;;;;2.12;75.83;97779.88;5068050;28;20226;-69
2021/12/05 05:13:37;;;;;;;5.40;2.20;;;;;;;2.32;70.71;97761.09;5069365;28;20234;-69
2021/12/05 05:16:06;;;;;;;5.23;2.60;;;;;;;1.33;75.05;97783.88;5067274;28;20215;-68
2021/12/05 05:18:42;;;;;;;2.77;2.27;;;;;;;3.47;70.04;97751.91;5066348;28;20223;-68
2021/12/05 05:50:40;;;;;;;2.60;2.40;;;;;;;0.66;79.22;97810.88;5066861;28;20226;-68
2021/12/05 05:53:07;;;;;;;5.17;3.07;;;;;;;0.89;80.00;97807.72;5066687;28;20223;-68
2021/12/05 05:55:35;;;;;;;3.80;2.80;;;;;;;0.63;79.99;97814.63;5067075;28;20715;-69
2021/12/05 05:58:12;;;;;;;3.73;2.53;;;;;;;0.56;79.10;97818.06;5067433;28;20225;-69
2021/12/05 06:00:52;;;;;;;4.13;2.87;;;;;;;0.52;80.54;97820.16;5066888;28;20226;-69
2021/12/05 06:06:07;;;;;;;3.57;2.40;;;;;;;0.41;80.06;97817.78;5067012;28;20564;-68
2021/12/05 06:08:37;;;;;;;3.30;3.00;;;;;;;1.16;78.93;97801.41;5064065;28;20679;-68
2021/12/05 06:11:08;;;;;;;4.37;2.40;;;;;;;1.09;79.45;97795.16;5063044;28;20235;-70
2021/12/05 06:13:36;;;;;;;2.70;2.50;;;;;;;0.34;82.40;97824.63;5058122;28;20667;-67
2021/12/05 06:16:05;;;;;;;6.23;3.33;;;;;;;0.32;81.21;97803.81;5067205;28;20230;-68
2021/12/05 06:18:33;;;;;;;5.00;2.70;;;;;;;0.91;80.90;97808.38;5066717;28;20235;-67
2021/12/05 06:21:00;;;;;;;6.37;3.00;;;;;;;1.33;77.10;97787.34;5065059;28;20227;-68
2021/12/05 06:23:27;;;;;;;3.80;2.90;;;;;;;0.88;78.61;97796.41;5067813;28;20231;-68
2021/12/05 06:25:54;;;;;;;5.87;3.10;;;;;;;0.99;79.33;97796.13;5065810;28;20662;-67
2021/12/05 06:28:29;;;;;;;4.47;2.50;;;;;;;0.18;81.59;97812.22;5066954;28;20703;-67
2021/12/05 06:41:58;;;;;;;6.40;2.90;;;;;;;0.45;79.88;97804.22;5046335;28;20239;-67
2021/12/05 06:47:14;;;;;;;6.23;3.00;;;;;;;0.63;77.59;97804.13;5064562;28;21788;-67
2021/12/05 06:49:43;;;;;;;7.83;2.60;;;;;;;0.80;77.40;97809.47;5066969;28;20711;-68
2021/12/05 06:52:29;;;;;;;3.33;2.97;;;;;;;1.14;79.73;97821.75;5064483;28;20227;-68
2021/12/05 06:55:00;;;;;;;7.77;2.90;;;;;;;0.31;80.61;97838.88;5033146;28;20230;-68
2021/12/05 06:57:47;;;;;;;4.73;2.63;;;;;;;0.36;81.22;97841.84;5051305;28;20235;-68
2021/12/05 07:00:34;;;;;;;4.10;2.57;;;;;;;0.67;80.95;97830.06;5055349;28;20234;-67
2021/12/05 07:03:23;;;;;;;4.53;2.97;;;;;;;1.11;80.29;97812.41;5055381;28;20992;-70
2021/12/05 07:06:18;;;;;;;4.63;2.80;;;;;;;0.39;80.08;97817.13;5044899;28;20225;-67
2021/12/05 07:08:46;;;;;;;7.37;2.90;;;;;;;0.56;80.88;97826.72;5043297;28;20234;-67
2021/12/05 07:11:32;;;;;;;8.23;3.43;;;;;;;0.47;80.93;97830.31;5044943;28;20236;-67
2021/12/05 07:23:44;;;;;;;4.70;2.90;;;;;;;0.48;80.14;97838.97;5053054;28;20922;-68
2021/12/05 07:26:23;;;;;;;4.00;2.63;;;;;;;1.06;79.91;97833.06;5053033;28;20382;-68
2021/12/05 07:40:57;;;;;;;4.43;2.87;;;;;;;1.78;77.26;97834.44;5054468;28;20748;-68
2021/12/05 07:43:24;;;;;;;6.40;2.90;;;;;;;0.54;79.56;97867.22;5070439;28;20229;-69
2021/12/05 07:45:58;;;;;;;5.70;3.33;;;;;;;1.00;77.62;97852.06;5058188;28;20244;-71
2021/12/05 07:48:31;;;;;;;5.87;2.77;;;;;;;1.04;77.98;97863.06;5055608;28;20304;-68
2021/12/05 07:53:58;;;;;;;8.47;4.20;;;;;;;0.95;78.05;97868.28;5036080;28;20286;-70
2021/12/05 07:56:31;;;;;;;4.03;2.93;;;;;;;1.70;74.73;97836.06;5043488;28;20270;-70
2021/12/05 08:15:25;;;;;;;6.20;3.13;;;;;;;2.28;75.26;97826.38;5040258;28;20310;-69
2021/12/05 08:17:53;;;;;;;4.00;2.60;;;;;;;2.15;73.32;97823.44;5034199;28;20707;-67
2021/12/05 08:20:30;;;;;;;4.83;3.97;;;;;;;1.80;73.39;97824.56;5031244;28;20231;-67
2021/12/05 08:23:00;;;;;;;3.67;3.30;;;;;;;2.65;73.57;97819.75;5062134;28;20265;-68
2021/12/05 08:25:30;;;;;;;4.13;3.23;;;;;;;2.04;73.60;97836.91;5068878;28;20224;-67
2021/12/05 08:28:18;;;;;;;5.00;2.83;;;;;;;1.48;74.20;97840.13;5076649;28;20272;-67
2021/12/05 08:30:54;;;;;;;14.67;9.20;;;;;;;2.29;71.79;97821.94;5067777;28;20245;-67
2021/12/05 08:37:02;;;;;;;5.57;3.23;;;;;;;2.41;73.92;97843.47;5046698;28;20229;-67
2021/12/05 08:42:18;;;;;;;4.30;2.90;;;;;;;1.19;76.85;97874.63;5076001;28;20225;-67
2021/12/05 09:20:35;;;;;;;3.50;2.73;;;;;;;2.14;77.28;97884.94;5068144;28;20231;-62
2021/12/05 10:11:39;;;;;;;5.47;3.20;;;;;;;3.59;72.31;97885.81;5067360;28;20232;-66
2021/12/05 10:36:27;;;;;;;4.40;3.37;;;;;;;4.47;69.42;97864.41;5068143;28;20224;-63
2021/12/05 10:38:59;;;;;;;3.37;2.77;;;;;;;3.83;72.08;97876.09;5067408;28;20234;-62
2021/12/05 10:44:03;;;;;;;4.33;3.03;;;;;;;5.01;68.28;97852.84;5068215;28;20734;-62
2021/12/05 10:46:30;;;;;;;5.00;3.40;;;;;;;5.15;66.76;97838.78;5067286;28;20215;-63
2021/12/05 10:49:03;;;;;;;3.50;3.20;;;;;;;2.95;72.89;97890.28;5069030;28;20227;-63
2021/12/05 10:51:55;;;;;;;2.93;2.70;;;;;;;2.99;73.47;97894.22;5052544;28;20227;-63
2021/12/05 10:54:25;;;;;;;4.63;3.37;;;;;;;4.06;70.54;97862.09;5066675;28;20224;-63
2021/12/05 10:56:59;;;;;;;8.47;4.30;;;;;;;4.73;69.53;97864.81;5024362;28;20651;-63
2021/12/05 10:59:39;;;;;;;8.77;3.67;;;;;;;2.68;73.49;97895.78;5068005;28;20229;-63
2021/12/05 11:03:44;;;;;;;3.07;2.70;;;;;;;0.95;80.77;97919.97;4976216;28;20856;-64
2021/12/05 11:06:40;;;;;;;3.60;2.80;;;;;;;2.37;78.07;97885.09;5002265;28;20235;-66
2021/12/05 11:09:12;;;;;;;3.30;3.00;;;;;;;1.36;81.14;97909.66;5000056;28;23034;-66
2021/12/05 11:11:43;;;;;;;3.80;2.80;;;;;;;2.49;78.40;97872.41;4979440;28;20233;-64
2021/12/05 11:14:14;;;;;;;3.83;2.90;;;;;;;1.85;78.19;97891.44;5037697;28;20796;-65
2021/12/05 11:17:01;;;;;;;2.83;2.30;;;;;;;1.38;79.54;97902.44;4962192;28;20604;-65
2021/12/05 11:19:29;;;;;;;3.43;3.13;;;;;;;0.58;82.69;97911.34;4962095;28;20646;-65
2021/12/05 11:22:22;;;;;;;2.93;2.60;;;;;;;1.06;82.14;97900.50;4963026;28;20657;-65
2021/12/05 11:24:49;;;;;;;4.33;2.50;;;;;;;2.21;78.69;97871.94;4968351;28;20257;-65
2021/12/05 11:27:43;;;;;;;4.30;2.70;;;;;;;1.21;80.48;97912.06;4978562;28;20222;-65
2021/12/05 11:30:10;;;;;;;3.60;2.60;;;;;;;1.26;79.68;97901.91;4980517;28;20708;-69
2021/12/05 11:32:51;;;;;;;8.27;3.70;;;;;;;1.67;80.10;97891.59;4979670;28;20230;-66
2021/12/05 11:35:27;;;;;;;6.17;3.03;;;;;;;2.74;76.10;97862.66;4978500;28;20229;-64
2021/12/05 11:38:03;;;;;;;4.23;2.63;;;;;;;1.25;78.84;97899.47;4970799;28;20240;-64
2021/12/05 11:40:41;;;;;;;4.67;3.30;;;;;;;1.61;78.91;97892.22;4981689;28;20224;-64
2021/12/05 11:43:10;;;;;;;6.00;2.80;;;;;;;0.81;81.15;97909.06;4980252;28;20226;-64
2021/12/05 11:46:01;;;;;;;3.47;2.83;;;;;;;1.75;79.06;97886.34;4982366;28;20244;-63
2021/12/05 11:49:13;;;;;;;5.37;2.83;;;;;;;2.12;78.65;97868.47;4982950;28;20233;-62
2021/12/05 11:51:52;;;;;;;5.43;3.87;;;;;;;1.75;77.52;97869.75;4982711;28;20238;-62
2021/12/05 11:54:31;;;;;;;6.07;2.70;;;;;;;1.36;79.69;97881.63;4982442;28;20222;-62
2021/12/05 11:57:17;;;;;;;4.53;2.83;;;;;;;1.73;80.55;97871.72;4981693;28;20595;-62
2021/12/05 11:59:52;;;;;;;4.20;2.57;;;;;;;1.84;79.03;97874.03;4982762;28;20234;-62
2021/12/05 12:02:25;;;;;;;4.20;3.20;;;;;;;1.49;79.77;97873.28;4981595;28;20225;-61
2021/12/05 12:05:04;;;;;;;4.40;3.30;;;;;;;1.79;78.94;97871.06;4981045;28;20252;-62
2021/12/05 12:07:39;;;;;;;3.67;2.83;;;;;;;1.79;79.34;97883.41;4979520;28;20238;-62
2021/12/05 12:10:14;;;;;;;5.23;3.10;;;;;;;3.11;76.60;97847.28;4981348;28;20225;-62
2021/12/05 12:12:46;;;;;;;3.63;2.60;;;;;;;2.18;77.70;97853.88;4981826;28;20234;-62
2021/12/05 12:15:15;;;;;;;6.10;3.17;;;;;;;1.54;81.21;97886.78;4968323;28;20227;-63
2021/12/05 12:17:43;;;;;;;2.90;2.60;;;;;;;1.99;78.91;97871.59;4968362;28;20229;-62
2021/12/05 12:20:21;;;;;;;4.43;2.70;;;;;;;1.77;78.81;97873.06;4968231;28;20232;-62
2021/12/05 12:22:50;;;;;;;4.07;2.80;;;;;;;2.46;79.85;97870.09;4968934;28;20598;-63
2021/12/05 12:25:23;;;;;;;4.87;3.00;;;;;;;1.80;80.22;97880.59;4969922;28;20231;-63
2021/12/05 12:27:50;;;;;;;4.17;2.87;;;;;;;3.32;74.52;97821.19;4966544;28;21519;-62
2021/12/05 12:30:24;;;;;;;3.20;2.50;;;;;;;2.75;76.79;97847.69;4969309;28;20223;-62
2021/12/05 12:33:21;;;;;;;3.30;2.73;;;;;;;3.10;74.17;97821.91;4969308;28;20565;-62
2021/12/05 12:35:50;;;;;;;4.50;2.90;;;;;;;3.17;73.36;97828.97;4981973;28;20782;-62
2021/12/05 12:38:30;;;;;;;9.13;2.77;;;;;;;4.15;72.69;97818.81;4986989;28;20233;-63
2021/12/05 12:41:16;;;;;;;4.27;2.60;;;;;;;3.33;73.44;97837.81;4964172;28;20602;-62
2021/12/05 12:43:48;;;;;;;6.50;2.83;;;;;;;4.94;69.54;97807.00;4968324;28;20297;-63
2021/12/05 12:46:21;;;;;;;4.10;3.50;;;;;;;2.93;76.00;97853.56;5007330;28;20224;-62
2021/12/05 12:48:52;;;;;;;4.37;2.70;;;;;;;2.87;75.13;97841.09;5048779;28;20231;-63
2021/12/05 12:51:30;;;;;;;4.37;3.00;;;;;;;3.35;73.12;97820.81;5021631;28;20287;-67
2021/12/05 12:54:01;;;;;;;3.77;2.57;;;;;;;3.19;73.67;97841.97;4959880;28;20232;-65
2021/12/05 12:56:29;;;;;;;5.30;2.70;;;;;;;3.67;74.60;97828.72;4946333;28;20224;-66
2021/12/05 12:59:10;;;;;;;4.97;3.17;;;;;;;2.43;77.17;97858.13;4954060;28;20233;-66
2021/12/05 13:12:45;;;;;;;3.47;2.93;;;;;;;2.94;71.60;97820.97;4967255;28;20219;-69
2021/12/05 13:15:17;;;;;;;3.53;2.20;;;;;;;2.39;72.99;97840.19;4967260;28;20221;-66
2021/12/05 13:17:47;;;;;;;4.63;3.23;;;;;;;3.24;72.81;97824.66;4966914;28;20600;-66
2021/12/05 13:20:18;;;;;;;4.03;3.07;;;;;;;2.93;71.04;97836.94;4968390;28;20214;-66
2021/12/05 13:22:58;;;;;;;2.97;2.40;;;;;;;4.05;69.53;97813.78;4965931;28;20242;-65
2021/12/05 13:25:26;;;;;;;2.63;2.43;;;;;;;3.45;70.60;97830.34;4965896;28;20234;-66
2021/12/05 13:27:53;;;;;;;5.20;2.47;;;;;;;2.35;71.99;97854.69;4970784;28;20219;-66
2021/12/05 13:30:33;;;;;;;3.43;2.90;;;;;;;4.02;67.78;97823.88;4968242;28;20720;-68
2021/12/05 13:33:22;;;;;;;4.73;3.23;;;;;;;3.65;69.38;97830.72;4957283;28;20694;-67
2021/12/05 13:35:53;;;;;;;2.80;2.27;;;;;;;3.82;68.07;97828.81;4942003;28;20226;-66
2021/12/05 13:38:38;;;;;;;2.57;2.37;;;;;;;4.56;67.25;97822.91;4966919;28;20223;-67
2021/12/05 13:41:14;;;;;;;3.30;2.70;;;;;;;2.69;70.46;97854.47;4968075;28;20615;-66
2021/12/05 13:43:52;;;;;;;3.63;2.40;;;;;;;4.06;68.95;97836.53;4968452;28;20234;-66
2021/12/05 13:46:39;;;;;;;4.90;2.30;;;;;;;3.15;68.88;97844.13;4967174;28;20237;-66
2021/12/05 13:49:31;;;;;;;11.33;5.03;;;;;;;2.56;69.98;97849.72;4969468;28;20614;-67
2021/12/05 13:52:30;;;;;;;10.53;5.97;;;;;;;4.35;67.57;97835.81;4961750;28;20618;-67
2021/12/05 13:55:55;;;;;;;2.87;2.67;;;;;;;4.05;67.61;97852.56;4967499;28;21785;-66
2021/12/05 13:58:46;;;;;;;4.57;2.53;;;;;;;4.70;65.54;97837.94;5030072;28;20601;-65
2021/12/05 14:01:30;;;;;;;5.67;2.70;;;;;;;3.16;68.05;97860.75;4967699;28;20741;-66
2021/12/05 14:04:15;;;;;;;3.20;2.20;;;;;;;3.37;68.17;97874.22;4965631;28;20604;-67
2021/12/05 14:06:52;;;;;;;2.93;2.43;;;;;;;4.26;66.69;97857.16;4966769;28;20344;-66
2021/12/05 14:09:46;;;;;;;6.40;3.47;;;;;;;3.26;68.13;97884.28;4965325;28;20231;-67
2021/12/05 14:12:13;;;;;;;6.57;3.20;;;;;;;3.60;68.74;97874.25;4965580;28;20734;-65
2021/12/05 14:15:05;;;;;;;3.93;3.00;;;;;;;4.40;65.77;97869.59;4967365;28;20324;-65
2021/12/05 14:17:36;;;;;;;2.77;2.57;;;;;;;4.20;65.84;97868.41;4964426;28;20231;-65
2021/12/05 14:20:13;;;;;;;4.53;2.73;;;;;;;2.58;70.25;97907.44;4962537;28;20242;-68
2021/12/05 14:22:42;;;;;;;5.67;2.83;;;;;;;3.65;66.38;97879.00;4965774;28;20234;-67
2021/12/05 14:25:13;;;;;;;6.30;2.83;;;;;;;4.71;65.39;97866.81;4967745;28;20604;-66
2021/12/05 14:27:51;;;;;;;3.33;2.97;;;;;;;2.98;67.98;97893.41;4966876;28;20235;-65
2021/12/05 14:30:20;;;;;;;4.80;2.70;;;;;;;3.26;69.02;97897.44;4966632;28;20800;-65
2021/12/05 14:32:50;;;;;;;3.90;3.03;;;;;;;2.68;70.22;97906.31;4965306;28;20244;-64
2021/12/05 14:35:21;;;;;;;6.10;3.03;;;;;;;2.61;70.78;97915.00;4966721;28;20229;-65
2021/12/05 14:37:51;;;;;;;3.97;3.03;;;;;;;2.50;70.54;97913.53;4964458;28;21413;-66
2021/12/05 14:40:30;;;;;;;4.00;3.30;;;;;;;2.48;70.77;97918.97;4967129;28;20607;-67
2021/12/05 14:43:04;;;;;;;6.77;3.63;;;;;;;2.54;70.74;97921.94;4965103;28;20769;-68
2021/12/05 14:45:37;;;;;;;3.33;3.03;;;;;;;2.53;71.16;97923.75;4960124;28;20238;-66
2021/12/05 14:48:10;;;;;;;4.67;2.97;;;;;;;2.46;70.90;97926.22;4965217;28;20230;-67
2021/12/05 14:50:51;;;;;;;4.03;2.97;;;;;;;3.21;68.86;97921.66;4967310;28;20274;-68
2021/12/05 14:53:24;;;;;;;3.20;2.67;;;;;;;2.75;69.80;97929.31;4953161;28;20237;-64
2021/12/05 14:55:58;;;;;;;4.83;2.93;;;;;;;2.55;69.76;97924.41;4965667;28;21589;-64
2021/12/05 14:58:30;;;;;;;6.13;2.70;;;;;;;2.63;69.53;97928.81;4966996;28;20451;-66
2021/12/05 15:00:58;;;;;;;3.73;3.00;;;;;;;2.61;69.51;97926.38;4964668;28;20230;-65
2021/12/05 15:03:29;;;;;;;3.00;2.77;;;;;;;2.80;68.61;97919.13;4966444;28;20219;-66
2021/12/05 15:06:00;;;;;;;5.60;3.20;;;;;;;2.52;69.59;97930.00;4963818;28;20605;-64
2021/12/05 15:08:29;;;;;;;4.73;2.73;;;;;;;2.45;69.84;97943.00;4966767;28;20238;-64
2021/12/05 15:11:00;;;;;;;3.03;2.73;;;;;;;4.80;64.46;97911.63;4965593;28;20223;-67
2021/12/05 15:13:27;;;;;;;12.70;7.87;;;;;;;4.71;63.30;97902.97;4966046;28;20610;-64
2021/12/05 15:15:56;;;;;;;7.73;3.90;;;;;;;5.02;63.25;97912.59;4964037;28;20222;-64
2021/12/05 15:18:29;;;;;;;7.67;4.67;;;;;;;5.19;63.26;97906.16;4946487;28;20234;-66
2021/12/05 15:20:58;;;;;;;20.70;11.67;;;;;;;4.56;64.82;97925.91;4947311;28;20241;-65
2021/12/05 15:23:31;;;;;;;26.27;14.47;;;;;;;4.99;63.54;97919.09;4945911;28;20238;-67
2021/12/05 15:26:02;;;;;;;19.17;10.90;;;;;;;5.25;62.73;97918.63;4947558;28;20611;-69
2021/12/05 15:28:29;;;;;;;13.93;9.67;;;;;;;5.42;62.41;97921.09;4947196;28;20609;-66
2021/12/05 15:30:56;;;;;;;11.17;7.53;;;;;;;4.99;62.76;97913.81;4945605;28;20231;-64
2021/12/05 15:33:28;;;;;;;8.37;6.03;;;;;;;4.85;63.58;97931.22;4960468;28;20237;-67
2021/12/05 15:35:58;;;;;;;6.50;4.50;;;;;;;4.45;64.26;97959.66;4966156;28;20241;-65
2021/12/05 15:38:29;;;;;;;4.80;3.47;;;;;;;4.67;64.25;97957.16;4966525;28;20230;-67
2021/12/05 15:41:03;;;;;;;5.47;3.30;;;;;;;4.87;64.04;97963.59;4967117;28;20235;-65
2021/12/05 15:43:33;;;;;;;4.03;2.97;;;;;;;5.41;62.56;97964.41;4965722;28;20234;-63
2021/12/05 15:46:00;;;;;;;4.47;2.93;;;;;;;4.45;65.01;97979.94;4965953;28;20231;-64
2021/12/05 15:48:30;;;;;;;4.43;3.10;;;;;;;4.19;65.37;97977.63;4966922;28;20606;-64
2021/12/05 15:51:00;;;;;;;4.27;2.87;;;;;;;4.56;65.12;97979.53;4968890;28;20227;-65
2021/12/05 15:53:31;;;;;;;3.30;2.87;;;;;;;3.43;66.87;97992.13;4968903;28;20237;-66
2021/12/05 15:56:01;;;;;;;4.43;3.07;;;;;;;4.14;66.97;98002.72;4967908;28;20231;-65
2021/12/05 15:58:57;;;;;;;2.83;2.47;;;;;;;3.82;66.11;97993.16;4969174;28;20236;-64
2021/12/05 16:01:25;;;;;;;9.57;6.80;;;;;;;5.03;63.55;97977.69;4967665;28;20619;-64
2021/12/05 16:03:55;;;;;;;9.03;6.33;;;;;;;5.49;62.87;97988.13;4969146;28;20241;-65
2021/12/05 16:06:35;;;;;;;28.97;16.00;;;;;;;5.39;62.97;97984.91;4969260;28;20604;-64
2021/12/05 16:09:14;;;;;;;28.37;17.07;;;;;;;5.16;63.97;97988.47;4968446;28;20222;-63
2021/12/05 16:11:42;;;;;;;10.57;6.23;;;;;;;4.10;66.04;98003.25;4965674;28;20235;-64
2021/12/05 16:14:09;;;;;;;9.70;5.17;;;;;;;5.04;64.03;97992.53;4969658;28;20257;-64
2021/12/05 16:16:36;;;;;;;8.27;4.33;;;;;;;5.86;61.93;97985.56;4969770;28;20227;-65
2021/12/05 16:19:09;;;;;;;7.17;4.50;;;;;;;5.81;60.73;97976.31;4967395;28;20984;-64
2021/12/05 16:21:38;;;;;;;6.73;4.73;;;;;;;5.54;61.58;97980.44;4969568;28;20241;-64
2021/12/05 16:24:15;;;;;;;5.77;4.10;;;;;;;5.20;62.80;97997.66;4970095;28;20229;-65
2021/12/05 16:26:45;;;;;;;6.17;4.27;;;;;;;4.68;64.07;97998.41;4968282;28;20248;-64
2021/12/05 16:29:17;;;;;;;8.67;4.93;;;;;;;4.57;63.94;97999.66;4969358;28;20227;-65
2021/12/05 16:31:55;;;;;;;6.77;4.10;;;;;;;4.82;64.36;98008.22;4959080;28;20240;-66
2021/12/05 16:34:29;;;;;;;7.97;4.00;;;;;;;4.83;63.90;98001.91;4968226;28;20240;-65
2021/12/05 16:37:06;;;;;;;6.33;3.97;;;;;;;5.06;63.84;98012.50;4968490;28;20235;-64
2021/12/05 16:39:42;;;;;;;6.33;4.33;;;;;;;4.78;64.39;98008.75;4967610;28;20230;-64
2021/12/05 16:42:22;;;;;;;6.23;4.67;;;;;;;4.06;67.27;98025.69;4969325;28;20222;-65
2021/12/05 16:44:52;;;;;;;3.50;3.20;;;;;;;3.53;68.83;98041.22;4968800;28;20231;-65
2021/12/05 16:47:23;;;;;;;3.20;2.90;;;;;;;3.23;70.50;98048.78;4968721;28;20226;-64
2021/12/05 16:49:52;;;;;;;3.83;3.00;;;;;;;2.98;71.66;98048.81;4967871;28;20609;-66
2021/12/05 16:52:21;;;;;;;4.23;2.97;;;;;;;3.45;70.37;98049.13;4968920;28;20745;-63
2021/12/05 16:55:09;;;;;;;3.67;3.27;;;;;;;3.28;70.85;98054.38;4968671;28;21174;-63
2021/12/05 16:57:57;;;;;;;5.03;3.53;;;;;;;3.26;70.78;98050.28;4968283;28;20238;-65
2021/12/05 17:00:27;;;;;;;4.33;3.50;;;;;;;3.60;69.53;98048.25;4969037;28;20234;-64
2021/12/05 17:03:03;;;;;;;6.63;5.13;;;;;;;4.08;67.94;98045.63;4956650;28;20606;-64
2021/12/05 17:05:36;;;;;;;22.87;12.33;;;;;;;4.43;66.73;98035.53;4969053;28;20233;-64
2021/12/05 17:08:13;;;;;;;32.23;17.43;;;;;;;4.61;66.29;98045.03;4954475;28;20233;-65
2021/12/05 17:10:48;;;;;;;34.80;19.20;;;;;;;4.46;66.18;98040.47;4967393;28;20237;-64
2021/12/05 17:13:24;;;;;;;23.90;17.27;;;;;;;4.67;65.79;98025.81;4968340;28;20233;-63
2021/12/05 17:16:07;;;;;;;11.30;9.47;;;;;;;4.65;65.56;98027.81;4957861;28;20766;-67
2021/12/05 17:18:41;;;;;;;9.43;8.53;;;;;;;4.48;65.73;98035.84;4968301;28;20226;-62
2021/12/05 17:21:14;;;;;;;6.27;5.67;;;;;;;4.70;65.25;98036.03;4967724;28;20221;-66
2021/12/05 17:23:51;;;;;;;7.23;4.53;;;;;;;4.54;65.74;98045.72;4958495;28;20232;-62
2021/12/05 17:26:24;;;;;;;11.17;7.70;;;;;;;3.37;69.57;98086.84;4967867;28;20231;-63
2021/12/05 17:28:56;;;;;;;5.67;4.60;;;;;;;3.26;70.59;98100.34;4968244;28;20230;-66
2021/12/05 17:31:31;;;;;;;4.73;3.77;;;;;;;3.22;68.83;98095.41;4966815;28;20222;-64
2021/12/05 17:34:03;;;;;;;6.43;4.03;;;;;;;3.48;67.97;98083.06;4967707;28;20233;-62
2021/12/05 17:36:33;;;;;;;4.37;3.50;;;;;;;3.42;68.59;98100.34;4967528;28;20240;-65
2021/12/05 17:39:03;;;;;;;3.67;3.33;;;;;;;3.39;68.11;98101.53;4968258;28;20230;-64
2021/12/05 17:41:32;;;;;;;3.20;2.90;;;;;;;3.22;67.33;98098.03;4966978;28;20232;-63
2021/12/05 17:44:00;;;;;;;3.77;2.80;;;;;;;3.08;66.77;98095.25;4968530;28;20226;-63
2021/12/05 17:46:30;;;;;;;3.37;2.60;;;;;;;3.10;67.11;98114.34;4959409;28;20638;-62
2021/12/05 17:48:58;;;;;;;2.80;2.60;;;;;;;2.17;69.71;98123.16;4968417;28;20241;-64
2021/12/05 17:51:33;;;;;;;3.03;2.73;;;;;;;2.76;68.43;98126.63;4967558;28;20230;-63
2021/12/05 17:54:00;;;;;;;3.93;3.63;;;;;;;2.76;68.49;98134.53;4969116;28;20230;-64
2021/12/05 17:56:43;;;;;;;3.50;3.07;;;;;;;2.70;67.96;98119.41;4947179;28;20226;-63
2021/12/05 17:59:23;;;;;;;4.63;3.00;;;;;;;2.74;68.51;98127.78;4957826;28;20231;-64
2021/12/05 18:04:41;;;;;;;2.90;2.70;;;;;;;3.18;66.91;98124.88;4966914;28;20235;-65
2021/12/05 18:07:09;;;;;;;2.70;2.50;;;;;;;3.06;67.02;98130.47;4963872;28;20239;-66
2021/12/05 18:09:36;;;;;;;2.90;2.70;;;;;;;2.81;67.52;98136.69;4965632;28;20226;-66